Time;durP1;ratioP1;P1;durP2;ratioP2;P2;SDS_P1;SDS_P2;PMS_P1;PMS_P2;Temp;Humidity;BMP_temperature;BMP_pressure;BME280_temperature;BME280_humidity;BME280_pressure;Samples;Min_cycle;Max_cycle;Signal;HPM_P1;HPM_P2
2022/07/06 00:00:09;;;;;;;5.35;2.28;;;;;;;;;;6219945;23;20016;-84
2022/07/06 00:02:36;;;;;;;7.03;2.40;;;;;;;;;;6219981;23;20111;-83
2022/07/06 00:05:02;;;;;;;3.58;2.33;;;;;;;;;;6219948;23;20083;-84
2022/07/06 00:07:28;;;;;;;3.95;2.05;;;;;;;;;;6219702;23;20012;-83
2022/07/06 00:09:54;;;;;;;6.95;2.10;;;;;;;;;;6220237;23;20011;-83
2022/07/06 00:12:20;;;;;;;4.65;2.40;;;;;;;;;;6249869;23;20048;-84
2022/07/06 00:14:46;;;;;;;4.00;2.60;;;;;;;;;;6220463;23;20434;-84
2022/07/06 00:17:13;;;;;;;5.65;2.30;;;;;;;;;;6219694;23;20004;-83
2022/07/06 00:19:45;;;;;;;2.67;2.00;;;;;;;;;;6221544;23;20030;-84
2022/07/06 00:22:11;;;;;;;4.88;2.10;;;;;;;;;;6219803;23;20453;-83
2022/07/06 00:24:37;;;;;;;4.40;2.28;;;;;;;;;;6221965;23;20058;-83
2022/07/06 00:27:04;;;;;;;3.70;2.25;;;;;;;;;;6221716;23;20062;-83
2022/07/06 00:29:30;;;;;;;2.55;2.03;;;;;;;;;;6221522;23;20050;-84
2022/07/06 00:31:56;;;;;;;4.18;1.85;;;;;;;;;;6222200;23;20081;-84
2022/07/06 00:34:22;;;;;;;4.68;1.90;;;;;;;;;;6221627;23;20011;-84
2022/07/06 00:36:48;;;;;;;3.85;1.80;;;;;;;;;;6221880;23;20453;-85
2022/07/06 00:39:14;;;;;;;2.40;1.80;;;;;;;;;;6248353;23;20007;-84
2022/07/06 00:41:41;;;;;;;4.55;1.80;;;;;;;;;;6221516;23;20024;-84
2022/07/06 00:44:09;;;;;;;3.95;2.00;;;;;;;;;;6248743;23;20000;-91
2022/07/06 00:46:35;;;;;;;3.03;1.90;;;;;;;;;;6222046;23;20091;-84
2022/07/06 00:49:01;;;;;;;4.78;1.80;;;;;;;;;;6221855;23;20015;-85
2022/07/06 00:51:32;;;;;;;3.67;1.83;;;;;;;;;;6221595;23;20334;-84
2022/07/06 00:54:00;;;;;;;3.05;2.08;;;;;;;;;;6221895;23;20004;-84
2022/07/06 00:56:26;;;;;;;5.38;2.10;;;;;;;;;;6221893;23;20007;-84
2022/07/06 00:58:53;;;;;;;3.65;2.03;;;;;;;;;;6221810;23;20004;-84
2022/07/06 01:01:19;;;;;;;3.83;2.17;;;;;;;;;;6248100;23;20061;-83
2022/07/06 01:03:45;;;;;;;4.63;2.20;;;;;;;;;;6248240;23;19997;-84
2022/07/06 01:06:11;;;;;;;3.65;2.03;;;;;;;;;;6221387;23;20008;-84
2022/07/06 01:08:38;;;;;;;4.75;2.10;;;;;;;;;;6248191;23;20082;-83
2022/07/06 01:11:04;;;;;;;4.13;2.15;;;;;;;;;;6221550;23;20015;-85
2022/07/06 01:13:31;;;;;;;4.15;2.00;;;;;;;;;;6221340;23;20026;-84
2022/07/06 01:15:57;;;;;;;3.78;2.20;;;;;;;;;;6221899;23;20334;-84
2022/07/06 01:18:24;;;;;;;2.83;2.40;;;;;;;;;;6248087;23;20071;-84
2022/07/06 01:20:50;;;;;;;4.75;2.38;;;;;;;;;;6222225;23;20016;-89
2022/07/06 01:23:16;;;;;;;4.30;2.30;;;;;;;;;;6231893;23;20023;-83
2022/07/06 01:25:43;;;;;;;2.95;2.10;;;;;;;;;;6221628;23;20011;-84
2022/07/06 01:28:09;;;;;;;3.70;2.10;;;;;;;;;;6221293;23;20000;-84
2022/07/06 01:30:35;;;;;;;4.72;2.25;;;;;;;;;;6220993;23;20000;-83
2022/07/06 01:33:01;;;;;;;3.85;1.70;;;;;;;;;;6221088;23;20012;-84
2022/07/06 01:35:29;;;;;;;4.97;2.13;;;;;;;;;;6221510;23;20050;-84
2022/07/06 01:37:56;;;;;;;4.25;2.10;;;;;;;;;;6248139;23;20005;-84
2022/07/06 01:40:23;;;;;;;2.92;2.00;;;;;;;;;;6248674;23;20014;-91
2022/07/06 01:42:49;;;;;;;4.35;2.17;;;;;;;;;;6221521;23;20007;-84
2022/07/06 01:45:15;;;;;;;4.03;2.22;;;;;;;;;;6221458;23;20468;-84
2022/07/06 01:47:41;;;;;;;3.58;2.40;;;;;;;;;;6220781;23;20012;-84
2022/07/06 01:50:08;;;;;;;3.35;2.30;;;;;;;;;;6220953;23;20087;-84
2022/07/06 01:52:34;;;;;;;7.10;2.25;;;;;;;;;;6220891;23;20414;-84
2022/07/06 01:55:01;;;;;;;3.17;2.40;;;;;;;;;;6220785;23;20345;-84
2022/07/06 01:57:27;;;;;;;3.20;2.42;;;;;;;;;;6221398;23;20428;-85
2022/07/06 01:59:53;;;;;;;6.15;2.30;;;;;;;;;;6247494;23;20076;-84
2022/07/06 02:02:19;;;;;;;4.72;2.50;;;;;;;;;;6248583;23;20052;-84
2022/07/06 02:04:45;;;;;;;6.22;2.38;;;;;;;;;;6221157;23;20007;-83
2022/07/06 02:07:11;;;;;;;3.90;2.60;;;;;;;;;;6247570;23;20105;-84
2022/07/06 02:09:41;;;;;;;4.68;2.70;;;;;;;;;;6221516;23;20086;-85
2022/07/06 02:12:07;;;;;;;3.80;2.50;;;;;;;;;;6223837;23;20089;-84
2022/07/06 02:14:33;;;;;;;4.72;2.92;;;;;;;;;;6221542;23;20004;-84
2022/07/06 02:17:00;;;;;;;3.83;2.65;;;;;;;;;;6220941;23;20095;-83
2022/07/06 02:19:26;;;;;;;4.43;2.75;;;;;;;;;;6220838;23;20026;-83
2022/07/06 02:21:52;;;;;;;4.15;2.65;;;;;;;;;;6222879;23;20016;-84
2022/07/06 02:24:18;;;;;;;3.92;2.80;;;;;;;;;;6224474;23;20032;-83
2022/07/06 02:26:44;;;;;;;3.70;2.63;;;;;;;;;;6225063;23;20011;-83
2022/07/06 02:29:10;;;;;;;4.65;2.80;;;;;;;;;;6220718;23;20007;-84
2022/07/06 02:31:36;;;;;;;3.03;2.45;;;;;;;;;;6220490;23;20008;-84
2022/07/06 02:34:03;;;;;;;5.28;2.70;;;;;;;;;;6220357;23;20027;-84
2022/07/06 02:36:29;;;;;;;3.95;2.50;;;;;;;;;;6220663;23;20429;-84
2022/07/06 02:38:55;;;;;;;4.22;3.10;;;;;;;;;;6220384;23;20062;-84
2022/07/06 02:41:21;;;;;;;6.72;2.92;;;;;;;;;;6220350;23;20016;-84
2022/07/06 02:43:47;;;;;;;3.53;2.65;;;;;;;;;;6247132;23;19997;-84
2022/07/06 02:46:14;;;;;;;4.40;2.78;;;;;;;;;;6220160;23;20004;-83
2022/07/06 02:48:40;;;;;;;5.15;3.30;;;;;;;;;;6247086;23;20000;-84
2022/07/06 02:51:06;;;;;;;3.40;2.70;;;;;;;;;;6246990;23;20452;-84
2022/07/06 02:53:32;;;;;;;3.88;2.75;;;;;;;;;;6247064;23;20067;-83
2022/07/06 02:55:58;;;;;;;3.10;2.47;;;;;;;;;;6220342;23;20448;-84
2022/07/06 02:58:24;;;;;;;4.00;2.70;;;;;;;;;;6247504;23;20001;-83
2022/07/06 03:00:51;;;;;;;3.78;2.53;;;;;;;;;;6222026;23;20345;-84
2022/07/06 03:03:17;;;;;;;3.45;2.70;;;;;;;;;;6222240;23;20000;-83
2022/07/06 03:05:46;;;;;;;3.83;2.38;;;;;;;;;;6248376;23;20011;-83
2022/07/06 03:08:12;;;;;;;3.60;2.67;;;;;;;;;;6247368;23;20007;-84
2022/07/06 03:10:39;;;;;;;3.33;2.60;;;;;;;;;;6221114;23;20004;-90
2022/07/06 03:13:05;;;;;;;3.22;2.40;;;;;;;;;;6220527;23;20079;-83
2022/07/06 03:15:31;;;;;;;3.47;2.45;;;;;;;;;;6220168;23;20012;-83
2022/07/06 03:17:57;;;;;;;3.40;2.47;;;;;;;;;;6220248;23;20380;-84
2022/07/06 03:20:23;;;;;;;4.53;2.30;;;;;;;;;;6220359;23;20015;-84
2022/07/06 03:22:50;;;;;;;4.65;2.03;;;;;;;;;;6246794;23;20016;-84
2022/07/06 03:25:16;;;;;;;3.45;1.80;;;;;;;;;;6220012;23;20079;-84
2022/07/06 03:27:42;;;;;;;2.28;1.60;;;;;;;;;;6219936;23;20091;-85
2022/07/06 03:30:08;;;;;;;3.47;1.77;;;;;;;;;;6246777;23;20361;-84
2022/07/06 03:32:35;;;;;;;3.70;1.58;;;;;;;;;;6220243;23;20004;-84
2022/07/06 03:35:01;;;;;;;2.60;1.50;;;;;;;;;;6247056;23;20031;-90
2022/07/06 03:37:27;;;;;;;5.38;1.50;;;;;;;;;;6220000;23;20055;-84
2022/07/06 03:39:53;;;;;;;2.25;1.50;;;;;;;;;;6219971;23;20012;-84
2022/07/06 03:42:19;;;;;;;2.80;1.42;;;;;;;;;;6247855;23;20000;-87
2022/07/06 03:44:49;;;;;;;2.55;1.30;;;;;;;;;;6220577;23;20005;-84
2022/07/06 03:47:15;;;;;;;2.80;1.60;;;;;;;;;;6219744;23;20089;-85
2022/07/06 03:49:41;;;;;;;2.72;1.38;;;;;;;;;;6246748;23;20376;-83
2022/07/06 03:52:08;;;;;;;3.60;1.40;;;;;;;;;;6246910;23;20000;-83
2022/07/06 03:54:34;;;;;;;2.95;1.40;;;;;;;;;;6222084;23;20004;-83
2022/07/06 03:57:00;;;;;;;2.80;1.33;;;;;;;;;;6222209;23;20066;-90
2022/07/06 03:59:26;;;;;;;1.98;1.50;;;;;;;;;;6222321;23;20430;-83
2022/07/06 04:01:52;;;;;;;2.15;1.30;;;;;;;;;;6249042;23;20008;-91
2022/07/06 04:04:19;;;;;;;4.57;1.60;;;;;;;;;;6226763;23;20004;-82
2022/07/06 04:06:45;;;;;;;3.25;1.38;;;;;;;;;;6222076;23;20437;-84
2022/07/06 04:09:11;;;;;;;2.95;1.70;;;;;;;;;;6222075;23;20063;-83
2022/07/06 04:11:37;;;;;;;2.65;1.40;;;;;;;;;;6221986;23;20000;-83
2022/07/06 04:14:04;;;;;;;5.80;1.58;;;;;;;;;;6248758;23;20007;-89
2022/07/06 04:21:35;;;;;;;8.75;1.63;;;;;;;;;;6279028;22;20066;-84
2022/07/06 04:24:01;;;;;;;2.08;1.45;;;;;;;;;;6278954;22;20003;-84
2022/07/06 04:26:29;;;;;;;2.83;1.40;;;;;;;;;;6252076;22;20004;-84
2022/07/06 04:28:55;;;;;;;3.30;1.27;;;;;;;;;;6251917;22;20000;-85
2022/07/06 04:31:21;;;;;;;2.92;1.50;;;;;;;;;;6251881;22;19999;-84
2022/07/06 04:33:47;;;;;;;1.85;1.40;;;;;;;;;;6252273;22;19999;-84
2022/07/06 04:36:13;;;;;;;3.15;1.58;;;;;;;;;;6252139;22;20090;-84
2022/07/06 04:38:43;;;;;;;2.17;1.30;;;;;;;;;;6252014;22;20094;-84
2022/07/06 04:41:09;;;;;;;4.40;1.27;;;;;;;;;;6278919;22;20043;-84
2022/07/06 04:43:35;;;;;;;3.17;1.30;;;;;;;;;;6251677;22;20050;-85
2022/07/06 04:46:01;;;;;;;2.53;1.50;;;;;;;;;;6251789;22;20087;-85
2022/07/06 04:48:28;;;;;;;4.80;1.40;;;;;;;;;;6251861;22;20004;-91
2022/07/06 04:50:54;;;;;;;2.90;1.33;;;;;;;;;;6251742;22;20444;-87
2022/07/06 04:53:20;;;;;;;3.03;1.48;;;;;;;;;;6252062;22;20051;-85
2022/07/06 04:55:46;;;;;;;1.75;1.13;;;;;;;;;;6251649;22;20011;-84
2022/07/06 04:58:13;;;;;;;2.15;1.50;;;;;;;;;;6252067;22;20057;-84
2022/07/06 05:00:39;;;;;;;5.05;1.50;;;;;;;;;;6251589;22;20019;-85
2022/07/06 05:03:05;;;;;;;2.47;1.50;;;;;;;;;;6279103;22;20007;-84
2022/07/06 05:05:31;;;;;;;3.22;1.40;;;;;;;;;;6251612;22;20008;-84
2022/07/06 05:08:01;;;;;;;3.38;1.40;;;;;;;;;;6255294;22;20087;-90
2022/07/06 05:10:31;;;;;;;2.50;1.30;;;;;;;;;;6261985;22;20035;-84
2022/07/06 05:12:57;;;;;;;4.18;1.50;;;;;;;;;;6253228;22;20004;-84
2022/07/06 05:15:23;;;;;;;2.10;1.10;;;;;;;;;;6252454;22;20003;-85
2022/07/06 05:17:49;;;;;;;4.18;1.50;;;;;;;;;;6252688;22;20008;-84
2022/07/06 05:20:15;;;;;;;2.38;1.10;;;;;;;;;;6277655;22;20369;-85
2022/07/06 05:22:41;;;;;;;2.90;1.30;;;;;;;;;;6251657;22;20096;-85
2022/07/06 05:25:08;;;;;;;3.78;1.20;;;;;;;;;;6251417;22;20004;-85
2022/07/06 05:27:34;;;;;;;2.38;1.15;;;;;;;;;;6251350;22;20004;-85
2022/07/06 05:30:00;;;;;;;2.15;1.20;;;;;;;;;;6252199;22;20004;-84
2022/07/06 05:32:26;;;;;;;4.28;1.30;;;;;;;;;;6251247;22;20003;-84
2022/07/06 05:34:52;;;;;;;2.65;1.00;;;;;;;;;;6251155;22;20012;-85
2022/07/06 05:37:18;;;;;;;1.67;1.00;;;;;;;;;;6251166;22;20003;-84
2022/07/06 05:39:46;;;;;;;5.38;1.23;;;;;;;;;;6278175;22;20004;-84
2022/07/06 05:42:13;;;;;;;1.52;0.90;;;;;;;;;;6276547;22;20043;-83
2022/07/06 05:44:39;;;;;;;1.83;0.80;;;;;;;;;;6276741;22;20015;-84
2022/07/06 05:52:34;;;;;;;2.85;0.90;;;;;;;;;;6277990;22;20015;-84
2022/07/06 05:55:01;;;;;;;1.80;1.10;;;;;;;;;;6250734;22;20011;-86
2022/07/06 05:57:27;;;;;;;2.85;1.33;;;;;;;;;;6250678;22;20003;-85
2022/07/06 05:59:53;;;;;;;2.03;1.02;;;;;;;;;;6250535;22;20003;-85
2022/07/06 06:02:19;;;;;;;2.58;1.00;;;;;;;;;;6278341;22;20339;-82
2022/07/06 06:04:45;;;;;;;6.05;0.93;;;;;;;;;;6250682;22;20026;-82
2022/07/06 06:07:12;;;;;;;1.60;0.90;;;;;;;;;;6250759;22;20004;-86
2022/07/06 06:09:38;;;;;;;4.93;0.80;;;;;;;;;;6251703;22;20422;-81
2022/07/06 06:12:04;;;;;;;4.07;0.98;;;;;;;;;;6250378;22;20410;-82
2022/07/06 06:14:30;;;;;;;3.50;1.20;;;;;;;;;;6250378;22;20032;-74
2022/07/06 06:16:56;;;;;;;3.53;1.08;;;;;;;;;;6276833;22;20075;-77
2022/07/06 06:19:22;;;;;;;3.35;0.80;;;;;;;;;;6249998;22;20010;-80
2022/07/06 06:21:49;;;;;;;4.32;1.10;;;;;;;;;;6250318;22;20518;-83
2022/07/06 06:24:15;;;;;;;4.35;0.88;;;;;;;;;;6250317;22;20007;-82
2022/07/06 06:26:41;;;;;;;3.58;0.90;;;;;;;;;;6250297;22;20014;-81
2022/07/06 06:29:07;;;;;;;2.65;0.80;;;;;;;;;;6250210;22;20010;-78
2022/07/06 06:31:33;;;;;;;5.30;1.48;;;;;;;;;;6249513;22;20003;-79
2022/07/06 06:33:59;;;;;;;4.45;0.80;;;;;;;;;;6250231;22;20057;-80
2022/07/06 06:36:25;;;;;;;5.07;0.98;;;;;;;;;;6250251;22;20042;-79
2022/07/06 06:38:51;;;;;;;2.90;0.80;;;;;;;;;;6277039;22;20002;-77
2022/07/06 06:41:20;;;;;;;3.00;0.90;;;;;;;;;;6249963;22;20435;-79
2022/07/06 06:43:46;;;;;;;3.28;0.90;;;;;;;;;;6249965;22;20003;-81
2022/07/06 06:46:12;;;;;;;4.45;0.90;;;;;;;;;;6250253;22;20004;-77
2022/07/06 06:48:39;;;;;;;3.42;1.00;;;;;;;;;;6251008;22;20042;-82
2022/07/06 06:51:08;;;;;;;2.65;0.80;;;;;;;;;;6250221;22;20460;-83
2022/07/06 06:53:34;;;;;;;1.92;0.65;;;;;;;;;;6277257;22;19996;-78
2022/07/06 06:56:00;;;;;;;1.75;0.75;;;;;;;;;;6277319;22;19999;-79
2022/07/06 06:58:26;;;;;;;1.70;0.80;;;;;;;;;;6249800;22;20496;-79
2022/07/06 07:00:52;;;;;;;1.95;0.75;;;;;;;;;;6277104;22;20087;-77
2022/07/06 07:03:18;;;;;;;4.00;0.70;;;;;;;;;;6249685;22;20011;-80
2022/07/06 07:05:45;;;;;;;2.35;0.63;;;;;;;;;;6249860;22;20008;-73
2022/07/06 07:08:11;;;;;;;3.30;0.77;;;;;;;;;;6249925;22;20004;-81
2022/07/06 07:10:37;;;;;;;4.82;0.90;;;;;;;;;;6249751;22;20057;-76
2022/07/06 07:13:03;;;;;;;5.00;0.75;;;;;;;;;;6276870;22;20046;-73
2022/07/06 07:15:29;;;;;;;3.03;0.80;;;;;;;;;;6277258;22;20077;-74
2022/07/06 07:17:55;;;;;;;1.20;0.60;;;;;;;;;;6249284;22;20004;-75
2022/07/06 07:20:22;;;;;;;6.00;0.80;;;;;;;;;;6248657;22;20030;-73
2022/07/06 07:22:48;;;;;;;2.15;0.80;;;;;;;;;;6249132;22;20004;-74
2022/07/06 07:25:14;;;;;;;1.77;0.80;;;;;;;;;;6276661;22;20368;-74
2022/07/06 07:27:40;;;;;;;1.90;0.70;;;;;;;;;;6276700;22;20003;-74
2022/07/06 07:30:07;;;;;;;1.83;0.60;;;;;;;;;;6276768;22;20007;-74
2022/07/06 07:32:33;;;;;;;2.95;0.82;;;;;;;;;;6276872;22;20003;-77
2022/07/06 07:34:59;;;;;;;3.03;0.75;;;;;;;;;;6276827;22;20031;-74
2022/07/06 07:37:25;;;;;;;1.75;0.60;;;;;;;;;;6249291;22;20015;-74
2022/07/06 07:39:51;;;;;;;2.72;0.80;;;;;;;;;;6249371;22;20027;-74
2022/07/06 07:42:17;;;;;;;3.22;0.90;;;;;;;;;;6249252;22;20390;-73
2022/07/06 07:44:43;;;;;;;1.50;0.80;;;;;;;;;;6249511;22;20004;-74
2022/07/06 07:47:09;;;;;;;2.60;0.50;;;;;;;;;;6249447;22;20012;-75
2022/07/06 07:49:35;;;;;;;1.83;0.70;;;;;;;;;;6275809;22;20000;-73
2022/07/06 07:52:01;;;;;;;2.38;0.80;;;;;;;;;;6276610;22;20000;-75
2022/07/06 07:54:29;;;;;;;2.40;0.90;;;;;;;;;;6276344;22;20326;-74
2022/07/06 07:56:55;;;;;;;3.67;0.90;;;;;;;;;;6249510;22;20008;-75
2022/07/06 07:59:22;;;;;;;1.50;0.70;;;;;;;;;;6249418;22;20010;-76
2022/07/06 08:01:48;;;;;;;1.67;0.60;;;;;;;;;;6249524;22;20011;-74
2022/07/06 08:04:14;;;;;;;3.05;0.90;;;;;;;;;;6249347;22;20329;-73
2022/07/06 08:06:40;;;;;;;1.80;0.63;;;;;;;;;;6249027;22;20429;-75
2022/07/06 08:09:07;;;;;;;2.75;0.70;;;;;;;;;;6249163;22;19999;-75
2022/07/06 08:11:36;;;;;;;2.78;0.75;;;;;;;;;;6249022;22;20006;-78
2022/07/06 08:14:04;;;;;;;2.70;0.80;;;;;;;;;;6248633;22;20000;-77
2022/07/06 08:16:30;;;;;;;2.17;0.80;;;;;;;;;;6249643;22;20007;-80
2022/07/06 08:18:56;;;;;;;1.73;0.70;;;;;;;;;;6249421;22;20138;-85
2022/07/06 08:21:22;;;;;;;2.58;0.80;;;;;;;;;;6248865;22;20344;-78
2022/07/06 08:23:48;;;;;;;3.08;0.80;;;;;;;;;;6249363;22;20007;-81
2022/07/06 08:26:15;;;;;;;2.35;0.90;;;;;;;;;;6249264;22;20134;-84
2022/07/06 08:28:41;;;;;;;2.55;0.90;;;;;;;;;;6276214;22;20054;-85
2022/07/06 08:31:07;;;;;;;5.03;0.63;;;;;;;;;;6249401;22;20011;-83
2022/07/06 08:33:33;;;;;;;2.05;0.75;;;;;;;;;;6249465;22;20000;-85
2022/07/06 08:35:59;;;;;;;2.92;1.00;;;;;;;;;;6249304;22;20008;-77
2022/07/06 08:38:25;;;;;;;10.85;1.05;;;;;;;;;;6249791;22;20011;-79
2022/07/06 08:40:52;;;;;;;4.40;0.93;;;;;;;;;;6250895;22;19999;-84
2022/07/06 08:43:18;;;;;;;1.50;0.80;;;;;;;;;;6251165;22;20010;-85
2022/07/06 08:45:45;;;;;;;5.22;1.10;;;;;;;;;;6250854;22;20015;-85
2022/07/06 08:48:12;;;;;;;2.20;1.30;;;;;;;;;;6251681;22;20011;-85
2022/07/06 08:50:38;;;;;;;3.13;0.98;;;;;;;;;;6251122;22;20007;-77
2022/07/06 08:53:05;;;;;;;2.85;1.10;;;;;;;;;;6251177;22;20015;-85
2022/07/06 08:55:31;;;;;;;6.10;1.10;;;;;;;;;;6251135;22;19999;-78
2022/07/06 08:57:58;;;;;;;3.22;1.02;;;;;;;;;;6251221;22;20011;-84
2022/07/06 09:00:25;;;;;;;3.25;0.93;;;;;;;;;;6250820;22;20004;-84
2022/07/06 09:02:54;;;;;;;3.33;1.10;;;;;;;;;;6278253;22;20027;-83
2022/07/06 09:05:22;;;;;;;2.15;1.20;;;;;;;;;;6250931;22;20130;-84
2022/07/06 09:07:51;;;;;;;11.52;1.05;;;;;;;;;;6250962;22;20138;-85
2022/07/06 09:10:18;;;;;;;4.47;1.10;;;;;;;;;;6278187;22;20014;-78
2022/07/06 09:12:44;;;;;;;4.30;1.17;;;;;;;;;;6251130;22;20082;-86
2022/07/06 09:15:11;;;;;;;2.03;1.10;;;;;;;;;;6250808;22;20011;-84
2022/07/06 09:17:41;;;;;;;2.60;1.10;;;;;;;;;;6250921;22;20006;-85
2022/07/06 09:20:09;;;;;;;3.05;1.63;;;;;;;;;;6250002;22;20019;-83
2022/07/06 09:22:35;;;;;;;4.25;1.98;;;;;;;;;;6250524;22;20027;-79
2022/07/06 09:25:05;;;;;;;3.33;1.10;;;;;;;;;;6277838;22;20000;-84
2022/07/06 09:27:41;;;;;;;3.97;1.10;;;;;;;;;;6254423;22;20341;-77
2022/07/06 09:30:08;;;;;;;4.28;1.10;;;;;;;;;;6251387;22;20358;-88
2022/07/06 09:32:41;;;;;;;2.35;1.00;;;;;;;;;;6251821;22;20007;-87
2022/07/06 09:35:08;;;;;;;4.43;0.85;;;;;;;;;;6250453;22;20004;-78
2022/07/06 09:37:34;;;;;;;2.05;0.93;;;;;;;;;;6250964;22;19999;-81
2022/07/06 09:40:00;;;;;;;4.78;1.15;;;;;;;;;;6250886;22;20027;-77
2022/07/06 09:42:27;;;;;;;4.03;1.10;;;;;;;;;;6250808;22;20052;-78
2022/07/06 09:44:53;;;;;;;2.42;1.00;;;;;;;;;;6250554;22;19999;-80
2022/07/06 09:47:20;;;;;;;2.20;1.02;;;;;;;;;;6277407;22;20054;-85
2022/07/06 09:49:49;;;;;;;2.97;0.80;;;;;;;;;;6249956;22;20004;-84
2022/07/06 09:52:16;;;;;;;1.85;0.80;;;;;;;;;;6250245;22;20456;-85
2022/07/06 09:54:42;;;;;;;2.10;0.88;;;;;;;;;;6277221;22;20026;-78
2022/07/06 09:57:09;;;;;;;6.30;0.98;;;;;;;;;;6277078;22;20061;-82
2022/07/06 09:59:35;;;;;;;4.25;1.00;;;;;;;;;;6250501;22;20000;-78
2022/07/06 10:02:02;;;;;;;3.15;0.90;;;;;;;;;;6251659;22;20003;-77
2022/07/06 10:04:29;;;;;;;2.22;1.00;;;;;;;;;;6251034;22;20007;-80
2022/07/06 10:06:56;;;;;;;3.00;1.05;;;;;;;;;;6277911;22;20356;-84
2022/07/06 10:09:23;;;;;;;2.20;1.05;;;;;;;;;;6277596;22;20075;-79
2022/07/06 10:11:53;;;;;;;3.65;0.98;;;;;;;;;;6277757;22;20018;-82
2022/07/06 10:14:24;;;;;;;4.68;1.50;;;;;;;;;;6250557;22;20007;-78
2022/07/06 10:16:50;;;;;;;4.85;1.10;;;;;;;;;;6250657;22;20479;-83
2022/07/06 10:19:18;;;;;;;3.38;1.13;;;;;;;;;;6277436;22;20003;-84
2022/07/06 10:21:44;;;;;;;3.78;1.30;;;;;;;;;;6277524;22;19996;-84
2022/07/06 10:24:12;;;;;;;2.95;0.90;;;;;;;;;;6277682;22;20078;-77
2022/07/06 10:26:39;;;;;;;3.72;0.90;;;;;;;;;;6250373;22;20004;-80
2022/07/06 10:29:06;;;;;;;2.47;0.98;;;;;;;;;;6277728;22;20000;-83
2022/07/06 10:31:33;;;;;;;2.25;0.98;;;;;;;;;;6250155;22;20012;-82
2022/07/06 10:34:03;;;;;;;3.45;1.00;;;;;;;;;;6250053;22;20015;-81
2022/07/06 10:36:30;;;;;;;3.75;1.33;;;;;;;;;;6250267;22;20018;-87
2022/07/06 10:38:56;;;;;;;3.30;1.10;;;;;;;;;;6250617;22;20008;-87
2022/07/06 10:41:32;;;;;;;1.92;1.10;;;;;;;;;;6277525;22;20006;-86
2022/07/06 10:44:00;;;;;;;5.68;1.38;;;;;;;;;;6250659;22;20011;-83
2022/07/06 10:46:29;;;;;;;3.70;1.10;;;;;;;;;;6278361;22;20329;-92
2022/07/06 10:48:57;;;;;;;2.75;1.30;;;;;;;;;;6250738;22;20030;-86
2022/07/06 10:51:27;;;;;;;4.40;1.35;;;;;;;;;;6278232;22;20034;-80
2022/07/06 10:53:57;;;;;;;4.90;1.17;;;;;;;;;;6255453;22;20417;-88
2022/07/06 10:56:33;;;;;;;1.77;0.98;;;;;;;;;;6250512;22;20007;-88
2022/07/06 10:59:03;;;;;;;3.90;1.02;;;;;;;;;;6250581;22;20034;-77
2022/07/06 11:01:29;;;;;;;4.10;1.10;;;;;;;;;;6250675;22;20202;-78
2022/07/06 11:03:58;;;;;;;2.75;0.98;;;;;;;;;;6277328;22;20053;-80
2022/07/06 11:06:25;;;;;;;1.70;0.68;;;;;;;;;;6250034;22;20004;-87
2022/07/06 11:08:55;;;;;;;3.88;0.90;;;;;;;;;;6250005;22;20134;-78
2022/07/06 11:11:21;;;;;;;13.18;2.28;;;;;;;;;;6249487;22;20015;-82
2022/07/06 11:13:49;;;;;;;20.23;5.68;;;;;;;;;;6250005;22;20082;-84
2022/07/06 11:16:16;;;;;;;13.07;4.75;;;;;;;;;;6276456;22;20006;-79
2022/07/06 11:18:46;;;;;;;4.38;1.50;;;;;;;;;;6276768;22;20082;-79
2022/07/06 11:21:20;;;;;;;2.72;1.05;;;;;;;;;;6249933;22;20019;-86
2022/07/06 11:23:47;;;;;;;3.17;0.90;;;;;;;;;;6275411;22;20007;-84
2022/07/06 11:26:14;;;;;;;1.85;0.90;;;;;;;;;;6276989;22;20011;-84
2022/07/06 11:28:40;;;;;;;2.60;0.90;;;;;;;;;;6276960;22;20004;-82
2022/07/06 11:31:06;;;;;;;1.60;0.90;;;;;;;;;;6276700;22;20012;-82
2022/07/06 11:33:33;;;;;;;4.28;0.95;;;;;;;;;;6275239;22;20073;-84
2022/07/06 11:36:16;;;;;;;1.85;0.93;;;;;;;;;;6277148;22;20031;-84
2022/07/06 11:38:43;;;;;;;1.40;0.93;;;;;;;;;;6275031;22;19999;-83
2022/07/06 11:41:11;;;;;;;2.22;0.93;;;;;;;;;;6276512;22;20011;-85
2022/07/06 11:43:39;;;;;;;3.75;1.10;;;;;;;;;;6276846;22;20026;-86
2022/07/06 11:46:05;;;;;;;2.13;1.00;;;;;;;;;;6274667;22;20011;-81
2022/07/06 11:48:31;;;;;;;4.05;1.00;;;;;;;;;;6276299;22;20440;-85
2022/07/06 11:51:01;;;;;;;3.05;1.08;;;;;;;;;;6277101;22;20064;-87
2022/07/06 11:53:27;;;;;;;5.22;1.40;;;;;;;;;;6275458;22;20322;-81
2022/07/06 11:55:54;;;;;;;2.83;1.10;;;;;;;;;;6275222;22;20010;-80
2022/07/06 11:58:24;;;;;;;6.32;1.30;;;;;;;;;;6275165;22;20015;-78
2022/07/06 12:01:05;;;;;;;2.85;1.10;;;;;;;;;;6277046;22;20433;-81
2022/07/06 12:03:32;;;;;;;2.35;1.00;;;;;;;;;;6275113;22;20000;-82
2022/07/06 12:05:59;;;;;;;2.30;1.10;;;;;;;;;;6274249;22;20003;-80
2022/07/06 12:08:25;;;;;;;3.67;1.20;;;;;;;;;;6276716;22;20025;-83
2022/07/06 12:10:52;;;;;;;2.67;1.10;;;;;;;;;;6276645;22;20008;-83
2022/07/06 12:13:19;;;;;;;3.38;1.17;;;;;;;;;;6275168;22;20004;-80
2022/07/06 12:15:45;;;;;;;5.63;1.00;;;;;;;;;;6277228;22;20011;-80
2022/07/06 12:18:11;;;;;;;3.38;1.33;;;;;;;;;;6277262;22;20425;-81
2022/07/06 12:20:37;;;;;;;2.85;1.20;;;;;;;;;;6276709;22;20027;-77
2022/07/06 12:23:04;;;;;;;5.60;1.15;;;;;;;;;;6276914;22;19999;-78
2022/07/06 12:25:31;;;;;;;4.15;1.38;;;;;;;;;;6277264;22;20035;-86
2022/07/06 12:27:57;;;;;;;2.53;1.35;;;;;;;;;;6278713;22;20006;-84
2022/07/06 12:30:24;;;;;;;6.30;1.40;;;;;;;;;;6278658;22;20011;-83
2022/07/06 12:33:09;;;;;;;1.90;1.30;;;;;;;;;;6277101;22;20057;-83
2022/07/06 12:35:35;;;;;;;1.75;1.10;;;;;;;;;;6277031;22;20003;-85
2022/07/06 12:38:01;;;;;;;1.77;1.20;;;;;;;;;;6276979;22;20004;-79
2022/07/06 12:40:28;;;;;;;3.20;1.48;;;;;;;;;;6276893;22;20003;-75
2022/07/06 12:42:54;;;;;;;2.80;1.30;;;;;;;;;;6276338;22;20003;-77
2022/07/06 12:45:20;;;;;;;2.00;1.40;;;;;;;;;;6276572;22;20008;-78
2022/07/06 12:48:00;;;;;;;3.67;1.25;;;;;;;;;;6276655;22;20034;-87
2022/07/06 12:50:33;;;;;;;1.67;1.15;;;;;;;;;;6277350;22;20069;-86
2022/07/06 12:53:00;;;;;;;4.20;1.35;;;;;;;;;;6251866;22;20050;-86
2022/07/06 12:55:29;;;;;;;3.55;1.30;;;;;;;;;;6276937;22;20000;-80
2022/07/06 12:57:56;;;;;;;3.35;1.35;;;;;;;;;;6277437;22;20003;-83
2022/07/06 13:00:22;;;;;;;2.97;1.10;;;;;;;;;;6277082;22;20011;-78
2022/07/06 13:02:53;;;;;;;1.88;1.05;;;;;;;;;;6276864;22;19999;-79
2022/07/06 13:05:27;;;;;;;3.67;1.20;;;;;;;;;;6277101;22;20030;-83
2022/07/06 13:07:54;;;;;;;3.22;1.10;;;;;;;;;;6277128;22;20027;-84
2022/07/06 13:10:20;;;;;;;2.38;0.85;;;;;;;;;;6278192;22;20026;-85
2022/07/06 13:12:46;;;;;;;2.05;1.08;;;;;;;;;;6277006;22;20433;-81
2022/07/06 13:15:13;;;;;;;2.60;0.80;;;;;;;;;;6276797;22;20000;-85
2022/07/06 13:17:40;;;;;;;2.35;0.90;;;;;;;;;;6276557;22;20396;-78
2022/07/06 13:20:07;;;;;;;2.47;1.05;;;;;;;;;;6276625;22;20091;-78
2022/07/06 13:22:33;;;;;;;1.77;1.00;;;;;;;;;;6251197;22;20666;-79
2022/07/06 13:24:59;;;;;;;1.90;0.90;;;;;;;;;;6276183;22;20006;-88
2022/07/06 13:27:25;;;;;;;2.47;0.98;;;;;;;;;;6277665;22;20007;-79
2022/07/06 13:29:52;;;;;;;2.50;0.90;;;;;;;;;;6252226;22;20378;-75
2022/07/06 13:32:18;;;;;;;2.10;1.00;;;;;;;;;;6278871;22;20091;-75
2022/07/06 13:34:44;;;;;;;2.47;0.98;;;;;;;;;;6277789;22;20000;-75
2022/07/06 13:37:10;;;;;;;2.60;1.00;;;;;;;;;;6277327;22;20091;-75
2022/07/06 13:39:36;;;;;;;1.35;0.77;;;;;;;;;;6275846;22;20422;-75
2022/07/06 13:42:02;;;;;;;2.45;1.10;;;;;;;;;;6276061;22;20023;-76
2022/07/06 13:44:29;;;;;;;3.00;0.82;;;;;;;;;;6276278;22;20004;-75
2022/07/06 13:46:55;;;;;;;2.83;1.08;;;;;;;;;;6276260;22;20010;-82
2022/07/06 13:49:21;;;;;;;2.40;0.80;;;;;;;;;;6276322;22;20003;-77
2022/07/06 13:51:47;;;;;;;2.38;1.00;;;;;;;;;;6278025;22;20043;-82
2022/07/06 13:54:13;;;;;;;1.75;0.80;;;;;;;;;;6276338;22;20082;-78
2022/07/06 13:56:40;;;;;;;2.67;0.90;;;;;;;;;;6277075;22;20015;-83
2022/07/06 13:59:07;;;;;;;1.85;1.00;;;;;;;;;;6276373;22;20004;-84
2022/07/06 14:01:33;;;;;;;3.00;1.00;;;;;;;;;;6250452;22;20317;-79
2022/07/06 14:03:59;;;;;;;2.78;0.90;;;;;;;;;;6276226;22;20325;-83
2022/07/06 14:06:25;;;;;;;1.73;0.90;;;;;;;;;;6276204;22;20003;-83
2022/07/06 14:08:51;;;;;;;2.30;0.70;;;;;;;;;;6276977;22;20075;-83
2022/07/06 14:11:21;;;;;;;2.28;1.05;;;;;;;;;;6276246;22;20011;-86
2022/07/06 14:13:47;;;;;;;2.30;0.98;;;;;;;;;;6276371;22;20490;-80
2022/07/06 14:16:13;;;;;;;2.45;0.95;;;;;;;;;;6278523;22;20004;-83
2022/07/06 14:18:39;;;;;;;1.80;0.93;;;;;;;;;;6277069;22;20011;-83
2022/07/06 14:21:06;;;;;;;1.50;0.80;;;;;;;;;;6276379;22;20055;-85
2022/07/06 14:23:32;;;;;;;3.85;1.10;;;;;;;;;;6276460;22;20345;-86
2022/07/06 14:25:58;;;;;;;1.83;0.70;;;;;;;;;;6277937;22;20054;-84
2022/07/06 14:28:24;;;;;;;2.70;0.80;;;;;;;;;;6277528;22;20010;-85
2022/07/06 14:30:50;;;;;;;2.88;0.80;;;;;;;;;;6276666;22;20018;-83
2022/07/06 14:33:18;;;;;;;1.40;1.00;;;;;;;;;;6276677;22;20004;-84
2022/07/06 14:35:50;;;;;;;4.00;1.00;;;;;;;;;;6276540;22;20433;-81
2022/07/06 14:38:17;;;;;;;2.20;0.90;;;;;;;;;;6275288;22;20000;-79
2022/07/06 14:40:43;;;;;;;3.33;0.70;;;;;;;;;;6275198;22;20091;-79
2022/07/06 14:43:10;;;;;;;1.63;1.00;;;;;;;;;;6277160;22;20004;-79
2022/07/06 14:45:36;;;;;;;4.07;1.00;;;;;;;;;;6275274;22;20003;-82
2022/07/06 14:48:02;;;;;;;1.98;0.80;;;;;;;;;;6275270;22;20011;-82
2022/07/06 14:50:28;;;;;;;1.60;0.80;;;;;;;;;;6276748;22;20015;-82